Time;durP1;ratioP1;P1;durP2;ratioP2;P2;SDS_P1;SDS_P2;PMS_P1;PMS_P2;Temp;Humidity;BMP_temperature;BMP_pressure;BME280_temperature;BME280_humidity;BME280_pressure;Samples;Min_cycle;Max_cycle;Signal;HPM_P1;HPM_P2
2022/03/12 00:00:56;;;;;;;9.87;5.60;;;7.60;48.50;;;;;;5095051;28;20036;-75
2022/03/12 00:03:22;;;;;;;9.77;5.23;;;7.60;48.00;;;;;;5088921;28;20049;-76
2022/03/12 00:05:54;;;;;;;9.57;5.33;;;7.60;47.60;;;;;;5089800;28;20043;-76
2022/03/12 00:08:21;;;;;;;9.33;5.40;;;7.60;47.50;;;;;;5092794;28;20028;-76
2022/03/12 00:10:49;;;;;;;9.40;5.00;;;7.60;47.80;;;;;;5091499;28;20052;-76
2022/03/12 00:13:19;;;;;;;8.53;5.33;;;7.60;47.60;;;;;;5092119;28;20040;-76
2022/03/12 00:15:47;;;;;;;13.87;5.53;;;7.60;47.90;;;;;;5092947;28;20052;-78
2022/03/12 00:18:16;;;;;;;8.47;5.20;;;7.60;47.50;;;;;;5094743;28;20036;-75
2022/03/12 00:20:45;;;;;;;8.97;5.10;;;7.60;47.60;;;;;;5092360;28;20063;-77
2022/03/12 00:23:14;;;;;;;8.40;5.10;;;7.60;47.30;;;;;;5095082;28;20048;-76
2022/03/12 00:25:41;;;;;;;9.47;6.03;;;7.60;47.50;;;;;;5099611;28;20031;-77
2022/03/12 00:28:07;;;;;;;9.20;5.50;;;7.60;47.60;;;;;;5098758;28;20055;-76
2022/03/12 00:30:35;;;;;;;10.27;6.17;;;7.60;47.70;;;;;;5094860;28;20275;-75
2022/03/12 00:33:01;;;;;;;8.77;5.33;;;7.60;48.20;;;;;;5097753;28;20108;-75
2022/03/12 00:35:27;;;;;;;12.23;5.33;;;7.60;48.20;;;;;;5094690;28;20059;-75
2022/03/12 00:37:53;;;;;;;11.97;5.80;;;7.50;48.10;;;;;;5098036;28;20032;-76
2022/03/12 00:40:20;;;;;;;9.10;5.27;;;7.50;47.90;;;;;;5095536;28;20044;-76
2022/03/12 00:42:46;;;;;;;14.43;6.07;;;7.60;47.80;;;;;;5087374;28;20121;-77
2022/03/12 00:45:12;;;;;;;8.47;5.37;;;7.60;47.50;;;;;;5090074;28;20040;-75
2022/03/12 00:47:39;;;;;;;10.73;6.07;;;7.60;47.10;;;;;;5093127;28;20032;-76
2022/03/12 00:50:06;;;;;;;10.07;5.93;;;7.60;47.40;;;;;;5095026;28;20039;-76
2022/03/12 00:52:32;;;;;;;9.97;5.70;;;7.60;47.90;;;;;;5090144;28;20419;-77
2022/03/12 00:54:59;;;;;;;8.60;5.17;;;7.60;47.80;;;;;;5087666;28;20047;-77
2022/03/12 00:57:24;;;;;;;9.40;5.30;;;7.60;47.90;;;;;;5092668;28;20032;-75
2022/03/12 00:59:50;;;;;;;8.13;5.37;;;7.60;48.00;;;;;;5094615;28;20051;-74
2022/03/12 01:02:18;;;;;;;9.00;5.50;;;7.60;47.90;;;;;;5094008;28;20064;-76
2022/03/12 01:04:45;;;;;;;8.67;5.57;;;7.60;48.00;;;;;;5090025;28;20096;-75
2022/03/12 01:07:12;;;;;;;7.10;5.33;;;7.60;48.00;;;;;;5100863;28;20044;-77
2022/03/12 01:09:38;;;;;;;8.30;5.60;;;7.60;48.00;;;;;;5090988;28;20089;-74
2022/03/12 01:12:05;;;;;;;10.07;6.07;;;7.60;48.10;;;;;;5091423;28;20076;-77
2022/03/12 01:14:31;;;;;;;9.40;5.37;;;7.60;48.50;;;;;;5092891;28;20071;-76
2022/03/12 01:16:58;;;;;;;10.50;5.77;;;7.50;48.50;;;;;;5091807;28;20044;-77
2022/03/12 01:19:24;;;;;;;8.33;5.70;;;7.50;48.50;;;;;;5089189;28;20495;-75
2022/03/12 01:21:52;;;;;;;8.07;5.63;;;7.50;48.20;;;;;;5094862;28;20048;-78
2022/03/12 01:24:18;;;;;;;9.13;5.70;;;7.60;48.40;;;;;;5088781;28;20036;-75
2022/03/12 01:26:44;;;;;;;9.90;5.73;;;7.50;48.50;;;;;;5102031;28;20036;-75
2022/03/12 01:29:10;;;;;;;8.70;5.80;;;7.50;48.70;;;;;;5093384;28;20564;-76
2022/03/12 01:31:37;;;;;;;10.57;5.20;;;7.50;48.80;;;;;;5084932;28;20491;-78
2022/03/12 01:34:03;;;;;;;9.27;5.30;;;7.50;49.00;;;;;;5087490;28;20036;-74
2022/03/12 01:36:30;;;;;;;10.67;5.57;;;7.50;48.80;;;;;;5092437;28;20047;-74
2022/03/12 01:38:58;;;;;;;11.20;5.53;;;7.40;49.10;;;;;;5093623;28;20040;-74
2022/03/12 01:41:26;;;;;;;10.83;5.57;;;7.40;49.30;;;;;;5091452;28;20044;-75
2022/03/12 01:43:53;;;;;;;8.43;5.40;;;7.40;48.80;;;;;;5100700;28;20052;-75
2022/03/12 01:46:29;;;;;;;15.80;5.63;;;7.50;48.80;;;;;;5091532;28;20495;-75
2022/03/12 01:48:59;;;;;;;9.83;6.17;;;7.40;48.90;;;;;;5102670;28;20123;-74
2022/03/12 01:51:25;;;;;;;10.27;5.77;;;7.40;49.10;;;;;;5098499;28;20040;-74
2022/03/12 01:53:51;;;;;;;10.90;5.70;;;7.40;49.40;;;;;;5087252;28;20044;-73
2022/03/12 01:56:18;;;;;;;10.10;5.77;;;7.40;49.50;;;;;;5094356;28;20108;-74
2022/03/12 01:58:47;;;;;;;9.10;6.03;;;7.50;49.30;;;;;;5094501;28;20044;-75
2022/03/12 02:01:14;;;;;;;10.53;6.20;;;7.40;49.80;;;;;;5066627;28;20051;-74
2022/03/12 02:03:40;;;;;;;8.93;5.63;;;7.40;49.90;;;;;;5091914;28;20102;-74
2022/03/12 02:06:06;;;;;;;11.20;5.93;;;7.40;49.80;;;;;;5101814;28;20044;-75
2022/03/12 02:08:32;;;;;;;13.50;6.30;;;7.40;50.00;;;;;;5100762;28;20556;-78
2022/03/12 02:10:59;;;;;;;12.27;5.93;;;7.30;50.10;;;;;;5089390;28;20036;-74
2022/03/12 02:13:28;;;;;;;14.90;5.90;;;7.30;50.10;;;;;;5097581;28;20040;-76
2022/03/12 02:16:06;;;;;;;11.00;5.57;;;7.30;50.30;;;;;;5096985;28;20036;-74
2022/03/12 02:18:31;;;;;;;11.47;5.13;;;7.30;50.20;;;;;;5093304;28;20040;-75
2022/03/12 02:20:58;;;;;;;8.30;5.23;;;7.20;50.10;;;;;;5087374;28;20422;-76
2022/03/12 02:23:24;;;;;;;11.40;5.60;;;7.20;50.10;;;;;;5091975;28;20044;-73
2022/03/12 02:25:51;;;;;;;8.90;5.57;;;7.20;50.20;;;;;;5098067;28;20066;-73
2022/03/12 02:28:19;;;;;;;9.20;6.23;;;7.20;50.20;;;;;;5088339;28;20546;-76
2022/03/12 02:30:51;;;;;;;7.93;5.23;;;7.20;50.30;;;;;;5090589;28;20123;-76
2022/03/12 02:33:26;;;;;;;11.37;6.20;;;7.20;50.20;;;;;;5094500;28;20044;-74
2022/03/12 02:35:53;;;;;;;13.27;5.70;;;7.20;50.20;;;;;;5092156;28;20097;-75
2022/03/12 02:38:21;;;;;;;10.13;6.30;;;7.20;50.40;;;;;;5093245;28;20036;-74
2022/03/12 02:40:48;;;;;;;14.83;6.00;;;7.20;50.60;;;;;;5094159;28;20644;-74
2022/03/12 02:43:21;;;;;;;11.07;6.13;;;7.10;50.50;;;;;;5103381;28;20062;-75
2022/03/12 02:45:48;;;;;;;10.87;5.90;;;7.20;50.60;;;;;;5094111;28;20065;-73
2022/03/12 02:48:14;;;;;;;9.50;5.40;;;7.20;50.50;;;;;;5091369;28;20040;-76
2022/03/12 02:50:43;;;;;;;11.33;5.60;;;7.10;50.20;;;;;;5092246;28;20032;-74
2022/03/12 02:53:08;;;;;;;9.60;6.03;;;7.10;50.40;;;;;;5093653;28;20055;-74
2022/03/12 02:55:37;;;;;;;9.57;5.33;;;7.10;50.50;;;;;;5093177;28;20115;-75
2022/03/12 02:58:05;;;;;;;10.57;6.17;;;7.10;50.70;;;;;;5094897;28;20049;-75
2022/03/12 03:00:36;;;;;;;12.47;6.40;;;7.10;50.50;;;;;;5100304;28;20169;-75
2022/03/12 03:03:03;;;;;;;11.87;6.23;;;7.10;50.70;;;;;;5094146;28;20173;-74
2022/03/12 03:08:04;;;;;;;8.93;6.13;;;7.10;50.70;;;;;;5089325;28;20048;-74
2022/03/12 03:10:35;;;;;;;9.60;6.07;;;7.10;51.40;;;;;;5092822;28;20439;-75
2022/03/12 03:13:28;;;;;;;8.90;5.67;;;7.10;50.60;;;;;;5098395;28;20038;-74
2022/03/12 03:15:59;;;;;;;9.23;6.07;;;7.10;50.70;;;;;;5098447;28;20044;-74
2022/03/12 03:18:27;;;;;;;8.23;5.83;;;7.10;50.40;;;;;;5099596;28;20036;-74
2022/03/12 03:20:54;;;;;;;10.93;6.50;;;7.10;50.30;;;;;;5088134;28;20048;-74
2022/03/12 03:23:23;;;;;;;10.97;5.80;;;7.10;50.50;;;;;;5090505;28;20028;-77
2022/03/12 03:25:49;;;;;;;10.17;6.13;;;7.10;50.50;;;;;;5090850;28;20112;-75
2022/03/12 03:28:17;;;;;;;8.83;6.20;;;7.10;50.40;;;;;;5097845;28;20099;-74
2022/03/12 03:30:43;;;;;;;8.83;6.10;;;7.10;50.50;;;;;;5099743;28;20123;-74
2022/03/12 03:33:11;;;;;;;11.87;6.30;;;7.10;50.60;;;;;;5092748;28;20449;-74
2022/03/12 03:35:38;;;;;;;11.43;5.80;;;7.10;50.40;;;;;;5088150;28;20071;-75
2022/03/12 03:38:05;;;;;;;10.27;6.37;;;7.10;50.10;;;;;;5091074;28;20044;-75
2022/03/12 03:40:30;;;;;;;12.70;7.07;;;7.20;50.10;;;;;;5097206;28;20035;-74
2022/03/12 03:42:56;;;;;;;9.53;6.00;;;7.10;50.40;;;;;;5096604;28;20046;-78
2022/03/12 03:45:24;;;;;;;8.77;5.97;;;7.10;50.50;;;;;;5089178;28;20036;-74
2022/03/12 03:47:50;;;;;;;8.77;6.20;;;7.10;50.60;;;;;;5093246;28;20040;-74
2022/03/12 03:50:20;;;;;;;10.20;5.53;;;7.00;50.70;;;;;;5089840;28;20427;-74
2022/03/12 03:52:46;;;;;;;9.67;6.23;;;7.00;50.70;;;;;;5094960;28;20100;-75
2022/03/12 03:55:12;;;;;;;10.50;6.23;;;7.10;51.20;;;;;;5090715;28;23406;-74
2022/03/12 03:57:37;;;;;;;9.27;5.53;;;6.90;51.40;;;;;;5090970;28;20063;-74
2022/03/12 04:00:04;;;;;;;11.97;6.13;;;6.90;51.50;;;;;;5095331;28;20446;-75
2022/03/12 04:02:37;;;;;;;9.47;5.73;;;6.80;51.60;;;;;;5090044;28;20040;-75
2022/03/12 04:05:04;;;;;;;10.47;6.80;;;6.80;51.60;;;;;;5098915;28;20104;-73
2022/03/12 04:07:34;;;;;;;11.70;6.20;;;6.70;51.80;;;;;;5085946;28;20048;-75
2022/03/12 04:10:00;;;;;;;10.77;6.37;;;6.70;52.20;;;;;;5087615;28;20067;-74
2022/03/12 04:12:26;;;;;;;9.53;5.93;;;6.60;52.20;;;;;;5084993;28;20044;-75
2022/03/12 04:14:54;;;;;;;9.70;6.23;;;6.60;52.10;;;;;;5090050;28;20044;-74
2022/03/12 04:17:22;;;;;;;10.27;6.00;;;6.60;52.30;;;;;;5089315;28;20036;-76
2022/03/12 04:19:48;;;;;;;10.10;5.80;;;6.60;52.50;;;;;;5089819;28;20044;-75
2022/03/12 04:22:16;;;;;;;11.90;6.37;;;6.50;52.50;;;;;;5081609;28;20078;-74
2022/03/12 04:24:43;;;;;;;9.90;6.50;;;6.60;52.60;;;;;;5094735;28;20071;-75
2022/03/12 04:27:08;;;;;;;11.67;6.20;;;6.50;52.80;;;;;;5095082;28;20116;-74
2022/03/12 04:29:34;;;;;;;9.17;6.13;;;6.50;52.90;;;;;;5099590;28;20508;-74
2022/03/12 04:32:00;;;;;;;10.73;6.17;;;6.50;53.00;;;;;;5091863;28;20039;-74
2022/03/12 04:34:27;;;;;;;8.83;5.83;;;6.50;53.00;;;;;;5093415;28;20044;-75
2022/03/12 04:36:53;;;;;;;11.20;6.43;;;6.50;52.90;;;;;;5078190;28;20056;-76
2022/03/12 04:39:19;;;;;;;9.80;6.17;;;6.60;53.10;;;;;;5095927;28;20036;-74
2022/03/12 04:41:46;;;;;;;8.87;5.97;;;6.50;53.00;;;;;;5104247;28;20157;-75
2022/03/12 04:44:12;;;;;;;10.67;6.63;;;6.50;53.00;;;;;;5093327;28;20036;-74
2022/03/12 04:46:38;;;;;;;10.57;6.10;;;6.50;53.10;;;;;;5096947;28;20040;-75
2022/03/12 04:49:04;;;;;;;12.43;6.50;;;6.50;53.10;;;;;;5096983;28;20065;-74
2022/03/12 04:51:30;;;;;;;11.27;5.93;;;6.50;53.10;;;;;;5102950;28;20422;-74
2022/03/12 04:53:57;;;;;;;9.23;6.20;;;6.50;53.20;;;;;;5096255;28;20060;-74
2022/03/12 04:56:23;;;;;;;9.63;5.77;;;6.40;53.10;;;;;;5090971;28;20047;-75
2022/03/12 04:58:53;;;;;;;10.03;6.13;;;6.40;53.30;;;;;;5094255;28;20056;-76
2022/03/12 05:01:18;;;;;;;10.13;6.00;;;6.30;53.70;;;;;;5095119;28;20052;-73
2022/03/12 05:03:46;;;;;;;9.40;6.00;;;6.30;53.90;;;;;;5076991;28;20036;-74
2022/03/12 05:06:13;;;;;;;10.73;6.23;;;6.30;54.00;;;;;;5094885;28;20108;-76
2022/03/12 05:08:39;;;;;;;8.77;6.10;;;6.30;54.10;;;;;;5097679;28;20059;-74
2022/03/12 05:11:07;;;;;;;13.60;5.80;;;6.20;54.00;;;;;;5101893;28;20048;-74
2022/03/12 05:13:37;;;;;;;10.40;6.53;;;6.20;54.20;;;;;;5090396;28;20043;-75
2022/03/12 05:16:06;;;;;;;12.07;6.63;;;6.20;54.00;;;;;;5100293;28;20044;-74
2022/03/12 05:18:36;;;;;;;11.27;6.47;;;6.20;54.10;;;;;;5096314;28;20066;-78
2022/03/12 05:21:03;;;;;;;13.00;6.00;;;6.20;54.30;;;;;;5102053;28;20036;-75
2022/03/12 05:23:32;;;;;;;11.07;6.37;;;6.20;54.20;;;;;;5098570;28;20031;-74
2022/03/12 05:25:58;;;;;;;11.00;5.63;;;6.10;54.30;;;;;;5094534;28;20046;-74
2022/03/12 05:28:26;;;;;;;8.80;5.60;;;6.10;54.40;;;;;;5105533;28;20040;-74
2022/03/12 05:30:58;;;;;;;10.13;5.80;;;6.10;54.50;;;;;;5094192;28;20048;-74
2022/03/12 05:33:26;;;;;;;8.77;5.73;;;6.00;54.50;;;;;;5096906;28;20063;-75
2022/03/12 05:35:54;;;;;;;10.03;6.13;;;6.00;54.60;;;;;;5091123;28;20108;-75
2022/03/12 05:38:21;;;;;;;9.07;5.63;;;6.00;54.70;;;;;;5095362;28;20040;-74
2022/03/12 05:40:48;;;;;;;9.97;5.70;;;6.00;54.90;;;;;;5101210;28;20048;-75
2022/03/12 05:43:17;;;;;;;8.83;5.83;;;5.90;55.00;;;;;;5090578;28;20415;-75
2022/03/12 05:45:46;;;;;;;9.93;5.70;;;5.90;55.10;;;;;;5098727;28;20039;-75
2022/03/12 05:48:14;;;;;;;11.87;6.40;;;5.90;55.10;;;;;;5089740;28;20064;-74
2022/03/12 05:50:43;;;;;;;9.20;5.90;;;5.90;55.20;;;;;;5099933;28;20044;-74
2022/03/12 05:53:09;;;;;;;9.27;6.63;;;5.90;55.30;;;;;;5091046;28;20043;-74
2022/03/12 05:55:39;;;;;;;12.83;6.27;;;5.90;55.40;;;;;;5121897;27;20036;-75
2022/03/12 05:58:06;;;;;;;10.10;5.93;;;5.90;55.40;;;;;;5098012;28;20044;-74
2022/03/12 06:00:35;;;;;;;9.90;5.73;;;5.90;55.40;;;;;;5085723;28;20075;-75
2022/03/12 06:03:03;;;;;;;10.17;6.03;;;5.90;55.40;;;;;;5098700;28;20085;-75
2022/03/12 06:05:30;;;;;;;10.20;5.83;;;6.00;55.60;;;;;;5100022;28;20044;-74
2022/03/12 06:07:59;;;;;;;8.83;5.73;;;6.00;55.60;;;;;;5094044;28;20024;-74
2022/03/12 06:10:31;;;;;;;8.47;5.63;;;6.00;55.70;;;;;;5099693;28;20040;-74
2022/03/12 06:12:59;;;;;;;8.13;5.65;;;6.00;55.50;;;;;;5089345;28;20532;-76
2022/03/12 06:15:26;;;;;;;9.57;6.30;;;6.00;55.70;;;;;;5095153;28;20098;-74
2022/03/12 06:17:52;;;;;;;10.50;6.10;;;6.00;55.60;;;;;;5089765;28;20039;-74
2022/03/12 06:20:23;;;;;;;8.30;5.97;;;6.00;55.60;;;;;;5090703;28;20040;-74
2022/03/12 06:22:50;;;;;;;8.40;5.60;;;6.00;55.80;;;;;;5093172;28;20040;-75
2022/03/12 06:25:18;;;;;;;12.97;6.47;;;6.00;56.00;;;;;;5090225;28;20312;-74
2022/03/12 06:27:47;;;;;;;11.57;6.17;;;6.00;56.20;;;;;;5102124;28;20060;-74
2022/03/12 06:30:15;;;;;;;11.10;5.97;;;6.00;56.10;;;;;;5098467;28;20036;-74
2022/03/12 06:32:43;;;;;;;10.10;6.20;;;6.00;56.30;;;;;;5094072;28;20066;-73
2022/03/12 06:35:10;;;;;;;11.03;6.40;;;6.00;56.40;;;;;;5098967;28;20070;-74
2022/03/12 06:37:38;;;;;;;11.60;6.50;;;6.00;56.60;;;;;;5089372;28;20044;-76
2022/03/12 06:40:08;;;;;;;9.03;6.07;;;6.00;56.80;;;;;;5093622;28;20424;-75
2022/03/12 06:42:36;;;;;;;8.57;6.20;;;6.00;56.90;;;;;;5091901;28;20097;-74
2022/03/12 06:45:03;;;;;;;10.10;6.30;;;6.00;56.90;;;;;;5095098;28;20044;-75
2022/03/12 06:47:29;;;;;;;10.57;6.20;;;6.00;56.90;;;;;;5090192;28;20050;-76
2022/03/12 06:49:56;;;;;;;11.33;6.23;;;6.00;57.10;;;;;;5091465;28;20289;-75
2022/03/12 06:52:22;;;;;;;11.60;6.40;;;6.00;57.40;;;;;;5095469;28;20040;-76
2022/03/12 06:54:49;;;;;;;9.03;6.13;;;6.10;57.40;;;;;;5096022;28;20101;-74
2022/03/12 06:57:14;;;;;;;9.93;5.70;;;6.10;57.20;;;;;;5089704;28;20047;-75
2022/03/12 06:59:41;;;;;;;10.33;6.33;;;6.10;57.30;;;;;;5093556;28;20044;-76
2022/03/12 07:02:07;;;;;;;9.47;6.33;;;6.20;57.70;;;;;;5091696;28;20488;-74
2022/03/12 07:04:34;;;;;;;10.93;6.43;;;6.20;57.60;;;;;;5101638;28;20659;-74
2022/03/12 07:07:01;;;;;;;11.50;6.30;;;6.30;57.70;;;;;;5092589;28;20035;-76
2022/03/12 07:09:27;;;;;;;9.17;6.50;;;6.30;57.50;;;;;;5092612;28;20356;-75
2022/03/12 07:11:56;;;;;;;9.37;6.57;;;6.30;57.60;;;;;;5073162;28;20058;-74
2022/03/12 07:14:22;;;;;;;10.80;7.03;;;6.30;57.90;;;;;;5085878;28;20044;-76
2022/03/12 07:16:51;;;;;;;9.87;6.53;;;6.30;58.10;;;;;;5093485;28;20037;-74
2022/03/12 07:19:17;;;;;;;9.73;6.33;;;6.30;58.20;;;;;;5090612;28;20045;-77
2022/03/12 07:21:43;;;;;;;15.87;6.13;;;6.30;57.90;;;;;;5097389;28;20063;-75
2022/03/12 07:24:09;;;;;;;10.53;6.33;;;6.30;58.20;;;;;;5099824;28;20048;-74
2022/03/12 07:26:35;;;;;;;9.87;6.67;;;6.30;58.40;;;;;;5081802;28;20051;-75
2022/03/12 07:29:00;;;;;;;12.00;6.70;;;6.30;58.70;;;;;;5099172;28;20075;-74
2022/03/12 07:31:26;;;;;;;12.00;6.50;;;6.30;58.80;;;;;;5100389;28;20051;-75
2022/03/12 07:33:54;;;;;;;9.43;5.87;;;6.40;59.00;;;;;;5099556;28;20036;-75
2022/03/12 07:36:22;;;;;;;10.47;6.13;;;6.50;59.20;;;;;;5101652;28;20294;-75
2022/03/12 07:38:49;;;;;;;11.97;6.77;;;6.60;59.30;;;;;;5100379;28;20086;-75
2022/03/12 07:41:15;;;;;;;11.07;6.77;;;6.90;59.30;;;;;;5101106;28;20070;-75
2022/03/12 07:43:41;;;;;;;11.30;6.53;;;7.20;59.00;;;;;;5100062;28;20109;-74
2022/03/12 07:46:07;;;;;;;11.80;6.50;;;7.60;58.70;;;;;;5101487;28;20039;-75
2022/03/12 07:48:33;;;;;;;9.43;6.67;;;8.10;58.30;;;;;;5098686;28;20043;-75
2022/03/12 07:51:01;;;;;;;12.00;7.23;;;8.60;57.80;;;;;;5095820;28;20392;-74
2022/03/12 07:53:27;;;;;;;9.40;6.60;;;9.00;56.50;;;;;;5095538;28;20040;-75
2022/03/12 07:55:53;;;;;;;9.23;6.53;;;9.10;56.10;;;;;;5100142;28;20055;-75
2022/03/12 07:58:21;;;;;;;10.03;6.73;;;9.00;56.10;;;;;;5101630;28;20036;-75
2022/03/12 08:00:46;;;;;;;12.93;7.27;;;8.90;56.00;;;;;;5100473;28;20048;-74
2022/03/12 08:03:13;;;;;;;11.40;6.93;;;8.80;55.90;;;;;;5094659;28;20431;-75
2022/03/12 08:05:39;;;;;;;11.13;6.50;;;8.90;56.90;;;;;;5097863;28;20066;-76
2022/03/12 08:08:06;;;;;;;14.83;6.93;;;8.90;56.20;;;;;;5092354;28;20048;-74
2022/03/12 08:11:24;;;;;;;11.67;6.80;;;8.90;56.00;;;;;;5090532;28;20123;-75
2022/03/12 08:13:20;;;;;;;13.63;7.20;;;8.90;56.40;;;;;;5096058;28;20044;-74
2022/03/12 08:15:45;;;;;;;11.60;6.90;;;8.90;56.30;;;;;;5085820;28;20036;-75
2022/03/12 08:18:11;;;;;;;12.70;7.17;;;8.90;56.50;;;;;;5098308;28;20060;-75
2022/03/12 08:20:37;;;;;;;10.87;7.20;;;8.90;56.80;;;;;;5089703;28;20055;-75
2022/03/12 08:23:04;;;;;;;11.43;7.37;;;9.10;57.10;;;;;;5091457;28;20036;-74
2022/03/12 08:25:31;;;;;;;12.13;7.47;;;9.10;57.10;;;;;;5089352;28;20044;-76
2022/03/12 08:27:57;;;;;;;15.13;7.50;;;9.10;57.40;;;;;;5089626;28;20047;-75
2022/03/12 08:30:22;;;;;;;11.33;7.33;;;9.20;57.50;;;;;;5088004;28;20040;-74
2022/03/12 08:32:49;;;;;;;11.57;7.60;;;9.30;57.40;;;;;;5087704;28;20455;-75
2022/03/12 08:35:16;;;;;;;10.70;7.27;;;9.50;56.80;;;;;;5089198;28;20748;-74
2022/03/12 08:37:43;;;;;;;12.00;7.60;;;9.70;57.10;;;;;;5088223;28;20109;-73
2022/03/12 08:40:13;;;;;;;13.03;7.60;;;9.80;56.80;;;;;;5085941;28;20039;-75
2022/03/12 08:42:41;;;;;;;12.00;8.10;;;10.10;56.70;;;;;;5092171;28;20036;-75
2022/03/12 08:45:08;;;;;;;11.40;7.60;;;10.20;56.00;;;;;;5091155;28;20052;-75
2022/03/12 08:47:33;;;;;;;9.43;6.83;;;10.30;55.90;;;;;;5090331;28;20118;-75
2022/03/12 08:49:59;;;;;;;12.67;7.97;;;10.50;56.20;;;;;;5082697;28;20103;-77
2022/03/12 08:52:28;;;;;;;13.97;7.70;;;10.70;55.70;;;;;;5067879;28;20109;-75
2022/03/12 08:54:54;;;;;;;14.67;7.97;;;10.70;55.30;;;;;;5091171;28;20048;-75
2022/03/12 08:57:20;;;;;;;15.23;7.67;;;10.80;55.20;;;;;;5091935;28;20710;-75
2022/03/12 08:59:47;;;;;;;10.00;7.47;;;10.90;55.30;;;;;;5096817;28;20124;-75
2022/03/12 09:02:13;;;;;;;10.57;7.70;;;10.90;55.40;;;;;;5089049;28;20079;-75
2022/03/12 09:04:39;;;;;;;10.83;7.37;;;10.90;55.60;;;;;;5095004;28;20048;-75
2022/03/12 09:07:05;;;;;;;12.97;7.20;;;11.00;56.10;;;;;;5097820;28;20044;-75
2022/03/12 09:09:32;;;;;;;11.13;7.80;;;11.20;56.30;;;;;;5090707;28;20071;-74
2022/03/12 09:11:57;;;;;;;16.90;8.20;;;11.50;56.30;;;;;;5091065;28;20051;-74
2022/03/12 09:14:23;;;;;;;12.10;8.40;;;11.70;55.50;;;;;;5088361;28;20422;-75
2022/03/12 09:16:50;;;;;;;12.07;8.07;;;11.80;55.10;;;;;;5090174;28;20483;-76
2022/03/12 09:19:17;;;;;;;13.10;7.83;;;11.80;55.50;;;;;;5091492;28;20062;-74
2022/03/12 09:21:44;;;;;;;13.33;7.90;;;12.00;55.40;;;;;;5092801;28;20041;-75
2022/03/12 09:24:11;;;;;;;12.23;8.67;;;12.20;55.90;;;;;;5090646;28;20444;-76
2022/03/12 09:26:37;;;;;;;11.70;8.40;;;12.50;55.00;;;;;;5103452;28;20044;-76
2022/03/12 09:29:03;;;;;;;11.90;8.13;;;12.50;55.00;;;;;;5099447;28;20044;-74
2022/03/12 09:31:29;;;;;;;12.97;8.40;;;13.00;54.70;;;;;;5099666;28;20040;-75
2022/03/12 09:33:56;;;;;;;15.17;8.30;;;13.70;54.70;;;;;;5087951;28;20047;-75
2022/03/12 09:36:22;;;;;;;11.03;7.83;;;14.40;55.40;;;;;;5098654;28;20048;-76
2022/03/12 09:38:47;;;;;;;15.17;8.33;;;15.20;53.50;;;;;;5095911;28;20071;-75
2022/03/12 09:41:14;;;;;;;15.40;8.57;;;15.70;52.40;;;;;;5096703;28;20067;-76
2022/03/12 09:43:41;;;;;;;14.60;8.07;;;16.00;52.40;;;;;;5100694;28;20039;-75
2022/03/12 09:46:07;;;;;;;12.43;7.90;;;16.60;53.90;;;;;;5094308;28;20028;-76
2022/03/12 09:48:33;;;;;;;11.27;8.30;;;17.20;51.20;;;;;;5095346;28;20048;-75
2022/03/12 09:51:01;;;;;;;12.40;8.23;;;17.50;50.30;;;;;;5077979;28;20143;-76
2022/03/12 09:53:27;;;;;;;16.87;8.60;;;17.70;50.70;;;;;;5088552;28;20083;-76
2022/03/12 09:55:53;;;;;;;16.23;8.87;;;17.50;50.20;;;;;;5080645;28;20478;-77
2022/03/12 09:58:18;;;;;;;13.60;8.63;;;17.30;51.30;;;;;;5063657;28;20044;-76
2022/03/12 10:00:44;;;;;;;14.33;8.33;;;17.20;52.10;;;;;;5094257;28;20032;-77
2022/03/12 10:03:11;;;;;;;10.93;8.33;;;17.00;52.10;;;;;;5083521;28;20132;-76
2022/03/12 10:05:38;;;;;;;11.23;8.63;;;17.00;53.20;;;;;;5083564;28;20057;-75
2022/03/12 10:08:05;;;;;;;13.00;9.00;;;17.10;53.60;;;;;;5079437;28;20534;-76
2022/03/12 10:10:31;;;;;;;14.90;8.80;;;17.20;54.10;;;;;;5079999;28;20060;-76
2022/03/12 10:12:58;;;;;;;12.53;8.63;;;17.20;54.10;;;;;;5081243;28;20404;-76
2022/03/12 10:15:24;;;;;;;14.37;8.13;;;17.10;53.60;;;;;;5041968;28;21988;-77
2022/03/12 10:17:50;;;;;;;11.20;8.73;;;16.90;54.30;;;;;;5063768;28;20043;-76
2022/03/12 10:20:17;;;;;;;11.30;8.30;;;16.70;54.60;;;;;;5078515;28;20054;-77
2022/03/12 10:22:45;;;;;;;15.13;9.07;;;16.60;55.40;;;;;;5079628;28;20040;-78
2022/03/12 10:25:13;;;;;;;12.07;8.60;;;16.60;56.00;;;;;;5079243;28;20044;-78
2022/03/12 10:27:40;;;;;;;13.40;9.20;;;16.50;56.00;;;;;;5080982;28;20052;-77
2022/03/12 10:30:07;;;;;;;16.23;9.20;;;16.30;56.80;;;;;;5059776;28;20043;-79
2022/03/12 10:32:41;;;;;;;10.67;8.63;;;16.40;56.90;;;;;;5083542;28;20127;-77
2022/03/12 10:35:08;;;;;;;;;;;16.70;57.40;;;;;;5078679;28;20719;-77
2022/03/12 10:37:34;;;;;;;14.53;9.37;;;16.80;56.90;;;;;;5048129;28;20287;-78
2022/03/12 10:40:06;;;;;;;13.00;9.27;;;16.80;57.10;;;;;;5061529;28;20035;-78
2022/03/12 10:42:36;;;;;;;12.23;9.20;;;16.70;57.60;;;;;;5085490;28;20052;-75
2022/03/12 10:45:07;;;;;;;12.03;8.43;;;16.50;59.30;;;;;;5084258;28;20139;-75
2022/03/12 10:47:39;;;;;;;14.97;9.40;;;16.50;59.00;;;;;;5081686;28;20471;-77
2022/03/12 10:50:07;;;;;;;37.33;20.27;;;16.30;59.80;;;;;;5075865;28;20052;-75
2022/03/12 10:52:34;;;;;;;16.67;10.37;;;16.30;60.80;;;;;;5082301;28;20044;-74
2022/03/12 10:55:10;;;;;;;13.33;8.40;;;16.50;61.40;;;;;;5061829;28;20032;-77
2022/03/12 10:57:38;;;;;;;12.57;7.87;;;16.60;60.70;;;;;;5083512;28;20146;-76
2022/03/12 11:00:09;;;;;;;9.93;8.00;;;16.60;61.40;;;;;;5080781;28;20469;-76
2022/03/12 11:02:35;;;;;;;12.47;8.63;;;16.60;62.40;;;;;;5079959;28;20048;-76
2022/03/12 11:05:04;;;;;;;15.47;8.23;;;16.40;62.70;;;;;;5062380;28;20044;-75
2022/03/12 11:07:30;;;;;;;13.93;8.33;;;16.30;63.20;;;;;;5078123;28;20040;-75
2022/03/12 11:09:56;;;;;;;10.50;7.90;;;16.40;63.50;;;;;;5080617;28;20044;-76
2022/03/12 11:12:31;;;;;;;14.77;8.07;;;16.60;63.40;;;;;;5060180;28;20040;-80
2022/03/12 11:15:05;;;;;;;9.00;7.33;;;16.80;63.30;;;;;;5075487;28;20143;-75
2022/03/12 11:17:41;;;;;;;12.32;7.75;;;16.90;63.80;;;;;;5081928;28;20056;-76
2022/03/12 11:20:12;;;;;;;11.93;7.13;;;17.00;65.00;;;;;;5080638;28;20108;-76
2022/03/12 11:22:37;;;;;;;8.57;7.47;;;17.30;63.90;;;;;;5081237;28;20059;-77
2022/03/12 11:25:04;;;;;;;12.80;7.53;;;17.30;64.60;;;;;;5084932;28;20048;-74
2022/03/12 11:27:32;;;;;;;13.73;8.00;;;17.30;64.90;;;;;;5060241;28;20051;-74
2022/03/12 11:30:00;;;;;;;14.20;8.00;;;16.90;65.00;;;;;;5057605;28;20043;-73
2022/03/12 11:32:30;;;;;;;11.90;7.27;;;16.80;65.70;;;;;;5074164;28;20040;-73
2022/03/12 11:35:10;;;;;;;10.90;6.90;;;16.70;66.30;;;;;;5062284;28;20127;-74
2022/03/12 11:37:37;;;;;;;10.00;6.70;;;16.70;67.50;;;;;;5074103;28;20036;-74
2022/03/12 11:40:08;;;;;;;10.30;6.97;;;16.40;67.30;;;;;;5063639;28;20036;-73
2022/03/12 11:42:35;;;;;;;10.17;6.70;;;16.20;68.50;;;;;;5056270;28;20082;-75
2022/03/12 11:45:04;;;;;;;11.37;7.10;;;16.10;68.90;;;;;;5082603;28;20043;-78
2022/03/12 11:47:34;;;;;;;9.87;6.67;;;16.00;69.60;;;;;;5086628;28;20035;-74
2022/03/12 11:50:01;;;;;;;11.93;7.17;;;15.90;70.00;;;;;;5087039;28;20048;-74
2022/03/12 11:52:27;;;;;;;9.27;6.83;;;16.00;70.90;;;;;;5087373;28;20036;-74
2022/03/12 11:54:56;;;;;;;10.30;7.07;;;16.20;71.60;;;;;;5085905;28;20047;-75
2022/03/12 11:57:24;;;;;;;10.60;7.00;;;16.50;71.90;;;;;;5089964;28;20515;-73
2022/03/12 11:59:50;;;;;;;10.43;7.20;;;16.50;70.90;;;;;;5056837;28;20647;-75
2022/03/12 12:02:23;;;;;;;11.07;6.57;;;16.40;70.50;;;;;;5090120;28;20043;-73
2022/03/12 12:04:52;;;;;;;10.02;6.88;;;16.40;71.60;;;;;;5090600;28;20123;-75
2022/03/12 12:07:20;;;;;;;12.77;7.30;;;16.70;71.50;;;;;;5069902;28;20115;-75
2022/03/12 12:09:46;;;;;;;10.87;7.20;;;17.00;73.00;;;;;;5080267;28;20063;-74
2022/03/12 12:12:14;;;;;;;9.87;6.60;;;17.50;71.00;;;;;;5070821;28;20116;-75
2022/03/12 12:14:41;;;;;;;10.30;6.97;;;17.70;67.40;;;;;;5067803;28;20064;-74
2022/03/12 12:17:07;;;;;;;10.13;6.80;;;17.40;67.40;;;;;;5089669;28;20044;-74
2022/03/12 12:19:34;;;;;;;10.17;6.60;;;17.10;68.30;;;;;;5069812;28;20047;-78
2022/03/12 12:22:02;;;;;;;11.83;7.67;;;16.80;68.10;;;;;;5078749;28;20130;-74
2022/03/12 12:24:29;;;;;;;10.67;6.77;;;16.60;70.10;;;;;;5084847;28;20131;-74
2022/03/12 12:27:01;;;;;;;12.17;7.50;;;16.60;69.90;;;;;;5062965;28;20052;-74
2022/03/12 12:29:52;;;;;;;22.57;13.13;;;16.60;70.10;;;;;;5065698;28;20036;-75
2022/03/12 12:32:20;;;;;;;12.77;7.80;;;16.40;70.40;;;;;;5042473;28;20143;-74
2022/03/12 12:35:04;;;;;;;12.27;8.10;;;16.30;71.00;;;;;;5069676;28;20051;-74
2022/03/12 12:37:54;;;;;;;17.37;8.07;;;16.20;71.30;;;;;;5087190;28;20044;-74
2022/03/12 12:40:27;;;;;;;9.33;7.13;;;16.20;72.30;;;;;;5085901;28;20048;-73
2022/03/12 12:42:56;;;;;;;8.00;7.13;;;16.40;72.90;;;;;;5066280;28;20457;-74
2022/03/12 12:45:23;;;;;;;14.83;9.03;;;16.60;70.70;;;;;;5079379;28;20048;-75
2022/03/12 12:48:07;;;;;;;13.73;7.30;;;16.40;72.00;;;;;;5083238;28;20044;-74
2022/03/12 12:50:33;;;;;;;12.77;7.00;;;16.20;71.70;;;;;;5087758;28;20036;-74
2022/03/12 12:53:15;;;;;;;13.73;6.73;;;16.10;72.10;;;;;;5066661;28;20051;-74